Time;durP1;ratioP1;P1;durP2;ratioP2;P2;SDS_P1;SDS_P2;PMS_P1;PMS_P2;Temp;Humidity;BMP_temperature;BMP_pressure;BME280_temperature;BME280_humidity;BME280_pressure;Samples;Min_cycle;Max_cycle;Signal;HPM_P1;HPM_P2
2024/03/18 00:01:32;;;;;;;9.52;2.53;;;5.70;99.90;;;;;;4997478;28;20181;-81
2024/03/18 00:03:58;;;;;;;15.23;3.08;;;5.70;99.90;;;;;;4990937;28;20033;-81
2024/03/18 00:06:24;;;;;;;11.30;2.65;;;5.70;99.90;;;;;;4993422;28;20034;-81
2024/03/18 00:08:50;;;;;;;7.13;2.42;;;5.60;99.90;;;;;;5012219;28;20108;-82
2024/03/18 00:11:17;;;;;;;10.70;2.78;;;5.60;99.90;;;;;;5011418;28;20022;-81
2024/03/18 00:13:42;;;;;;;10.43;2.75;;;5.60;99.90;;;;;;5011746;28;20018;-81
2024/03/18 00:16:08;;;;;;;7.38;2.33;;;5.60;99.90;;;;;;5010045;28;20096;-81
2024/03/18 00:18:33;;;;;;;8.45;2.38;;;5.60;99.90;;;;;;5009247;28;20064;-81
2024/03/18 00:20:59;;;;;;;10.85;2.80;;;5.50;99.90;;;;;;4990411;28;20030;-81
2024/03/18 00:23:25;;;;;;;4.70;2.65;;;5.50;99.90;;;;;;4999531;28;20518;-81
2024/03/18 00:25:51;;;;;;;10.52;2.67;;;5.50;99.90;;;;;;5003464;28;20030;-82
2024/03/18 00:28:18;;;;;;;9.88;2.42;;;5.50;99.90;;;;;;4989944;28;20023;-81
2024/03/18 00:30:44;;;;;;;9.07;2.20;;;5.50;99.90;;;;;;4990427;28;20034;-82
2024/03/18 00:33:09;;;;;;;7.72;2.47;;;5.50;99.90;;;;;;4994365;28;20385;-81
2024/03/18 00:35:35;;;;;;;7.22;2.50;;;5.40;99.90;;;;;;5011485;28;20167;-81
2024/03/18 00:38:00;;;;;;;9.88;3.20;;;5.40;99.90;;;;;;4983617;28;20038;-81
2024/03/18 00:40:26;;;;;;;8.45;2.90;;;5.40;99.90;;;;;;4990989;28;20128;-81
2024/03/18 00:42:52;;;;;;;8.32;2.85;;;5.40;99.90;;;;;;4990057;28;20104;-81
2024/03/18 00:45:17;;;;;;;10.63;3.45;;;5.40;99.90;;;;;;4990375;28;20030;-81
2024/03/18 00:47:43;;;;;;;10.68;3.17;;;5.50;99.90;;;;;;4989506;28;20022;-81
2024/03/18 00:50:11;;;;;;;7.60;2.50;;;5.40;99.90;;;;;;5001948;28;20033;-81
2024/03/18 00:52:38;;;;;;;7.38;2.53;;;5.50;99.90;;;;;;5010472;28;20084;-81
2024/03/18 00:55:04;;;;;;;4.95;2.35;;;5.40;99.90;;;;;;4993740;28;20060;-81
2024/03/18 00:57:29;;;;;;;9.82;2.85;;;5.40;99.90;;;;;;4995882;28;20029;-81
2024/03/18 00:59:55;;;;;;;4.00;2.47;;;5.40;99.90;;;;;;5011457;28;20197;-81
2024/03/18 01:02:21;;;;;;;7.05;2.63;;;5.40;99.90;;;;;;4999292;28;20026;-81
2024/03/18 01:04:47;;;;;;;5.93;2.90;;;5.40;99.90;;;;;;5006468;28;20464;-81
2024/03/18 01:07:12;;;;;;;6.90;2.45;;;5.40;99.90;;;;;;5007437;28;20459;-81
2024/03/18 01:09:40;;;;;;;9.30;3.47;;;5.40;99.90;;;;;;4989729;28;20086;-82
2024/03/18 01:12:06;;;;;;;12.63;3.33;;;5.30;99.90;;;;;;4991241;28;20030;-81
2024/03/18 01:14:31;;;;;;;5.15;2.70;;;5.20;99.90;;;;;;4990968;28;20049;-82
2024/03/18 01:16:57;;;;;;;10.23;3.05;;;5.20;99.90;;;;;;5005188;28;20056;-81
2024/03/18 01:19:23;;;;;;;10.35;3.25;;;5.20;99.90;;;;;;5009950;28;20028;-81
2024/03/18 01:21:50;;;;;;;6.22;3.17;;;5.20;99.90;;;;;;5009419;28;20140;-81
2024/03/18 01:24:15;;;;;;;7.30;3.10;;;5.20;99.90;;;;;;4998615;28;20110;-81
2024/03/18 01:26:41;;;;;;;8.00;3.20;;;5.10;99.90;;;;;;4990018;28;20512;-81
2024/03/18 01:29:07;;;;;;;8.98;3.17;;;5.10;99.90;;;;;;5007948;28;20026;-81
2024/03/18 01:31:33;;;;;;;9.63;3.30;;;5.10;99.90;;;;;;5008602;28;20432;-80
2024/03/18 01:34:04;;;;;;;7.65;3.00;;;5.00;99.90;;;;;;5008639;28;20129;-81
2024/03/18 01:36:32;;;;;;;9.82;3.47;;;5.00;99.90;;;;;;5009969;28;20033;-81
2024/03/18 01:38:57;;;;;;;11.40;2.85;;;4.90;99.90;;;;;;5009904;28;20029;-81
2024/03/18 01:41:23;;;;;;;9.55;4.22;;;4.90;99.90;;;;;;5008825;28;20088;-81
2024/03/18 01:43:49;;;;;;;7.97;3.17;;;4.90;99.90;;;;;;4998860;28;20114;-80
2024/03/18 01:46:16;;;;;;;6.35;2.88;;;4.90;99.90;;;;;;4988903;28;20050;-81
2024/03/18 01:48:43;;;;;;;9.02;3.22;;;4.80;99.90;;;;;;4990428;28;20080;-81
2024/03/18 01:51:09;;;;;;;6.93;2.90;;;4.80;99.90;;;;;;4978690;28;20053;-81
2024/03/18 01:53:35;;;;;;;6.75;3.33;;;4.80;99.90;;;;;;5009274;28;20038;-81
2024/03/18 01:56:01;;;;;;;10.85;2.72;;;4.80;99.90;;;;;;4997352;28;20035;-81
2024/03/18 01:58:27;;;;;;;7.13;3.55;;;4.70;99.90;;;;;;4990995;28;20046;-81
2024/03/18 02:00:52;;;;;;;6.75;3.20;;;4.70;99.90;;;;;;5008942;28;20033;-81
2024/03/18 02:03:23;;;;;;;6.05;2.75;;;4.70;99.90;;;;;;5010465;28;20022;-81
2024/03/18 02:05:49;;;;;;;;;;;4.70;99.90;;;;;;5009514;28;20371;-81
2024/03/18 02:08:14;;;;;;;5.55;3.00;;;4.70;99.90;;;;;;4995536;28;19975;-81
2024/03/18 02:10:41;;;;;;;9.52;3.10;;;4.70;99.90;;;;;;4989182;28;20389;-81
2024/03/18 02:13:06;;;;;;;5.68;2.95;;;4.60;99.90;;;;;;4990270;28;20033;-81
2024/03/18 02:15:32;;;;;;;5.18;2.65;;;4.60;99.90;;;;;;4998252;28;20018;-81
2024/03/18 02:17:59;;;;;;;9.23;3.65;;;4.60;99.90;;;;;;5012357;28;20084;-81
2024/03/18 02:20:25;;;;;;;8.65;2.97;;;4.50;99.90;;;;;;5017920;28;20042;-81
2024/03/18 02:22:52;;;;;;;7.63;3.40;;;4.50;99.90;;;;;;5012275;28;20026;-81
2024/03/18 02:25:18;;;;;;;4.25;2.67;;;4.50;99.90;;;;;;4995207;28;20081;-81
2024/03/18 02:27:46;;;;;;;4.75;3.00;;;4.50;99.90;;;;;;5009386;28;20034;-81
2024/03/18 02:30:13;;;;;;;8.35;2.88;;;4.40;99.90;;;;;;5011756;28;20368;-80
2024/03/18 02:32:41;;;;;;;9.88;3.83;;;4.40;99.90;;;;;;5011875;28;20493;-81
2024/03/18 02:35:08;;;;;;;6.45;3.42;;;4.40;99.90;;;;;;4995848;28;20030;-81
2024/03/18 02:37:34;;;;;;;10.15;3.70;;;4.40;99.90;;;;;;4992002;28;20054;-81
2024/03/18 02:40:01;;;;;;;4.63;3.00;;;4.40;99.90;;;;;;4992813;28;20503;-81
2024/03/18 02:42:26;;;;;;;5.40;2.95;;;4.30;99.90;;;;;;4993599;28;20030;-81
2024/03/18 02:44:52;;;;;;;8.07;3.13;;;4.40;99.90;;;;;;4993246;28;20378;-81
2024/03/18 02:47:18;;;;;;;5.75;2.83;;;4.30;99.90;;;;;;4991482;28;20030;-81
2024/03/18 02:49:43;;;;;;;6.35;2.72;;;4.30;99.90;;;;;;4993927;28;20026;-81
2024/03/18 02:52:09;;;;;;;6.88;3.22;;;4.30;99.90;;;;;;4991783;28;20049;-81
2024/03/18 02:54:34;;;;;;;6.05;3.47;;;4.20;99.90;;;;;;4993524;28;20027;-81
2024/03/18 02:57:00;;;;;;;5.68;3.25;;;4.20;99.90;;;;;;4991571;28;20029;-81
2024/03/18 02:59:25;;;;;;;6.88;3.22;;;4.20;99.90;;;;;;4993359;28;20026;-81
2024/03/18 03:01:51;;;;;;;9.15;3.55;;;4.20;99.90;;;;;;4993399;28;20520;-81
2024/03/18 03:04:17;;;;;;;3.85;2.80;;;4.20;99.90;;;;;;4991584;28;20386;-81
2024/03/18 03:06:42;;;;;;;4.93;3.60;;;4.20;99.90;;;;;;4992790;28;20034;-81
2024/03/18 03:09:09;;;;;;;5.95;3.00;;;4.20;99.90;;;;;;4991458;28;20089;-81
2024/03/18 03:11:35;;;;;;;5.07;3.05;;;4.10;99.90;;;;;;5010429;28;20030;-81
2024/03/18 03:14:01;;;;;;;6.40;3.38;;;4.10;99.90;;;;;;5007979;28;20050;-82
2024/03/18 03:16:27;;;;;;;6.53;3.15;;;4.20;99.90;;;;;;5000159;28;20057;-81
2024/03/18 03:18:53;;;;;;;7.00;4.07;;;4.20;99.90;;;;;;4993556;28;20027;-81
2024/03/18 03:21:19;;;;;;;8.13;3.70;;;4.20;99.90;;;;;;5007396;28;20456;-81
2024/03/18 03:23:45;;;;;;;9.55;3.63;;;4.10;99.90;;;;;;5010902;28;20077;-81
2024/03/18 03:26:10;;;;;;;5.93;3.40;;;4.10;99.90;;;;;;5011774;28;20029;-81
2024/03/18 03:28:37;;;;;;;5.43;3.40;;;4.10;99.90;;;;;;4994738;28;20034;-81
2024/03/18 03:31:05;;;;;;;6.63;3.45;;;4.10;99.90;;;;;;5012544;28;20076;-81
2024/03/18 03:33:31;;;;;;;8.98;3.72;;;4.10;99.90;;;;;;4994797;28;20033;-81
2024/03/18 03:35:56;;;;;;;7.30;4.20;;;4.00;99.90;;;;;;5011959;28;20057;-81
2024/03/18 03:38:23;;;;;;;8.45;3.38;;;4.10;99.90;;;;;;4995355;28;20076;-81
2024/03/18 03:40:52;;;;;;;7.47;4.00;;;4.00;99.90;;;;;;5012281;28;20063;-81
2024/03/18 03:43:19;;;;;;;8.27;3.78;;;4.10;99.90;;;;;;5010897;28;20105;-82
2024/03/18 03:45:58;;;;;;;10.45;4.00;;;4.00;99.90;;;;;;5012712;28;20079;-82
2024/03/18 03:48:24;;;;;;;6.72;3.65;;;4.00;99.90;;;;;;4998464;28;20224;-81
2024/03/18 03:50:51;;;;;;;7.45;3.55;;;3.90;99.90;;;;;;4993052;28;20026;-81
2024/03/18 03:53:17;;;;;;;8.50;4.22;;;3.90;99.90;;;;;;4991929;28;20373;-81
2024/03/18 03:55:44;;;;;;;5.07;3.63;;;3.80;99.90;;;;;;4991647;28;20046;-82
2024/03/18 03:58:10;;;;;;;6.40;3.83;;;3.80;99.90;;;;;;4991869;28;20026;-81
2024/03/18 04:00:45;;;;;;;7.93;3.97;;;3.80;99.90;;;;;;4992302;28;20033;-82
2024/03/18 04:03:22;;;;;;;9.00;3.83;;;3.80;99.90;;;;;;4994318;28;20418;-81
2024/03/18 04:05:48;;;;;;;6.68;3.88;;;3.80;99.90;;;;;;4977053;28;20034;-81
2024/03/18 04:08:14;;;;;;;5.45;3.47;;;3.70;99.90;;;;;;4993445;28;20060;-81
2024/03/18 04:10:39;;;;;;;10.30;4.30;;;3.70;99.90;;;;;;4992846;28;20031;-81
2024/03/18 04:13:06;;;;;;;6.65;3.78;;;3.70;99.90;;;;;;4994573;28;20022;-81
2024/03/18 04:15:32;;;;;;;7.80;4.65;;;3.70;99.90;;;;;;4995845;28;20025;-81
2024/03/18 04:17:57;;;;;;;7.82;4.22;;;3.70;99.90;;;;;;4995916;28;20026;-81
2024/03/18 04:20:24;;;;;;;7.57;4.25;;;3.60;99.90;;;;;;5004027;28;20041;-81
2024/03/18 04:22:53;;;;;;;7.28;4.03;;;3.70;99.90;;;;;;5005445;28;20022;-81
2024/03/18 04:25:20;;;;;;;8.70;4.03;;;3.70;99.90;;;;;;5005569;28;20034;-81
2024/03/18 04:27:47;;;;;;;10.07;4.05;;;3.60;99.90;;;;;;5009216;28;20023;-81
2024/03/18 04:30:16;;;;;;;8.55;4.13;;;3.60;99.90;;;;;;5008996;28;20030;-81
2024/03/18 04:32:45;;;;;;;6.63;3.97;;;3.50;99.90;;;;;;5005738;28;20073;-82
2024/03/18 04:35:11;;;;;;;6.03;3.65;;;3.50;99.90;;;;;;4978194;28;20046;-81
2024/03/18 04:37:46;;;;;;;8.30;3.78;;;3.60;99.90;;;;;;4989621;28;20156;-82
2024/03/18 04:40:23;;;;;;;8.15;4.03;;;3.60;99.90;;;;;;4990596;28;20121;-82
2024/03/18 04:42:49;;;;;;;9.38;4.40;;;3.60;99.90;;;;;;4974564;28;20022;-82
2024/03/18 04:45:17;;;;;;;8.82;4.60;;;3.70;99.90;;;;;;4993589;28;20022;-82
2024/03/18 04:47:45;;;;;;;9.63;4.75;;;3.60;99.90;;;;;;5011102;28;20025;-81
2024/03/18 04:50:13;;;;;;;7.13;4.55;;;3.60;99.90;;;;;;5009987;28;20022;-81
2024/03/18 04:52:39;;;;;;;5.38;3.85;;;3.60;99.90;;;;;;5009921;28;20033;-82
2024/03/18 04:55:06;;;;;;;7.60;4.40;;;3.70;99.90;;;;;;5002066;28;20030;-82
2024/03/18 04:57:33;;;;;;;7.07;4.20;;;3.70;99.90;;;;;;4989671;28;20114;-81
2024/03/18 04:59:59;;;;;;;9.18;4.55;;;3.70;99.90;;;;;;4973551;28;20027;-81
2024/03/18 05:02:24;;;;;;;7.95;4.40;;;3.70;99.90;;;;;;4989722;28;20114;-81
2024/03/18 05:04:51;;;;;;;8.88;4.65;;;3.60;99.90;;;;;;4990145;28;20026;-81
2024/03/18 05:07:17;;;;;;;6.40;4.35;;;3.60;99.90;;;;;;4989610;28;20026;-81
2024/03/18 05:09:46;;;;;;;7.55;4.32;;;3.60;99.90;;;;;;4989926;28;20122;-81
2024/03/18 05:12:12;;;;;;;9.57;4.68;;;3.70;99.90;;;;;;4989464;28;20504;-82
2024/03/18 05:14:38;;;;;;;7.65;4.30;;;3.60;99.90;;;;;;4989586;28;20027;-81
2024/03/18 05:17:04;;;;;;;10.18;4.85;;;3.50;99.90;;;;;;4991145;28;20085;-82
2024/03/18 05:19:30;;;;;;;5.30;3.72;;;3.50;99.90;;;;;;4989681;28;20497;-82
2024/03/18 05:21:55;;;;;;;7.63;4.93;;;3.50;99.90;;;;;;4991017;28;20105;-81
2024/03/18 05:24:21;;;;;;;8.40;4.35;;;3.50;99.90;;;;;;4989611;28;20389;-81
2024/03/18 05:26:47;;;;;;;8.63;4.32;;;3.50;99.90;;;;;;4989691;28;20038;-82
2024/03/18 05:29:12;;;;;;;11.02;4.88;;;3.40;99.90;;;;;;4988983;28;20110;-81
2024/03/18 05:31:39;;;;;;;11.32;4.88;;;3.40;99.90;;;;;;4990651;28;20065;-82
2024/03/18 05:34:05;;;;;;;8.63;4.95;;;3.30;99.90;;;;;;4989209;28;20026;-82
2024/03/18 05:36:32;;;;;;;7.05;4.40;;;3.30;99.90;;;;;;4973108;28;20030;-82
2024/03/18 05:38:58;;;;;;;10.05;4.93;;;3.30;99.90;;;;;;4989495;28;20022;-82
2024/03/18 05:41:24;;;;;;;7.47;5.57;;;3.30;99.90;;;;;;4989759;28;20505;-82
2024/03/18 05:43:50;;;;;;;9.80;5.15;;;3.30;99.90;;;;;;4990908;28;20259;-82
2024/03/18 05:46:17;;;;;;;9.13;4.85;;;3.30;99.90;;;;;;4988892;28;20030;-82
2024/03/18 05:48:43;;;;;;;5.38;4.13;;;3.30;99.90;;;;;;5009052;28;20069;-82
2024/03/18 05:51:09;;;;;;;7.88;4.28;;;3.30;99.90;;;;;;4996384;28;20435;-82
2024/03/18 05:53:35;;;;;;;6.30;3.55;;;3.20;99.90;;;;;;5013991;28;20504;-82
2024/03/18 05:56:02;;;;;;;9.18;4.70;;;3.30;99.90;;;;;;5012347;28;20022;-82
2024/03/18 05:58:28;;;;;;;10.40;5.85;;;3.30;99.90;;;;;;4998908;28;20038;-82
2024/03/18 06:00:53;;;;;;;9.27;4.88;;;3.20;99.90;;;;;;4993355;28;20030;-82
2024/03/18 06:03:19;;;;;;;9.35;5.07;;;3.30;99.90;;;;;;4992822;28;20048;-84
2024/03/18 06:05:44;;;;;;;8.13;4.93;;;3.30;99.90;;;;;;4994352;28;20106;-85
2024/03/18 06:08:10;;;;;;;9.30;4.97;;;3.40;99.90;;;;;;4993407;28;20477;-85
2024/03/18 06:10:35;;;;;;;11.38;5.30;;;3.40;99.90;;;;;;4997773;28;20049;-85
2024/03/18 06:13:01;;;;;;;14.60;5.40;;;3.40;99.90;;;;;;5011664;28;20033;-86
2024/03/18 06:15:28;;;;;;;10.30;5.25;;;3.50;99.90;;;;;;5011968;28;20036;-85
2024/03/18 06:17:54;;;;;;;9.65;4.47;;;3.50;99.90;;;;;;5011533;28;20037;-87
2024/03/18 06:20:19;;;;;;;8.13;4.88;;;3.50;99.90;;;;;;5011639;28;20396;-85
2024/03/18 06:22:47;;;;;;;7.45;4.47;;;3.60;99.90;;;;;;5012087;28;20033;-85
2024/03/18 06:27:57;;;;;;;7.93;4.55;;;3.70;99.90;;;;;;5013380;28;20041;-85
2024/03/18 06:30:23;;;;;;;8.77;4.55;;;3.80;99.90;;;;;;5012795;28;20018;-86
2024/03/18 06:32:53;;;;;;;8.98;4.82;;;3.90;99.90;;;;;;4997958;28;20030;-87
2024/03/18 06:35:19;;;;;;;10.63;5.20;;;3.90;99.90;;;;;;4993758;28;20026;-87
2024/03/18 06:37:47;;;;;;;11.55;5.03;;;3.90;99.90;;;;;;4993838;28;20045;-84
2024/03/18 06:40:13;;;;;;;10.63;5.00;;;4.00;99.90;;;;;;4993370;28;20117;-87
2024/03/18 06:42:38;;;;;;;8.45;4.38;;;4.10;99.90;;;;;;4994374;28;20049;-86
2024/03/18 06:45:07;;;;;;;9.63;4.95;;;4.10;99.90;;;;;;4994447;28;20110;-86
2024/03/18 06:47:32;;;;;;;12.50;5.65;;;4.30;99.90;;;;;;4994882;28;20022;-86
2024/03/18 06:49:58;;;;;;;12.15;5.47;;;4.20;99.90;;;;;;4994176;28;20096;-86
2024/03/18 06:52:24;;;;;;;8.35;5.40;;;4.20;99.90;;;;;;4997800;28;20423;-86
2024/03/18 06:54:49;;;;;;;9.80;5.30;;;4.20;99.90;;;;;;4996990;28;20057;-87
2024/03/18 06:57:15;;;;;;;8.35;5.40;;;4.30;99.90;;;;;;5012952;28;20156;-87
2024/03/18 06:59:41;;;;;;;8.98;5.47;;;4.40;99.90;;;;;;5008480;28;20075;-86
2024/03/18 07:02:11;;;;;;;11.63;5.70;;;4.50;99.90;;;;;;5013448;28;20456;-86
2024/03/18 07:04:37;;;;;;;;;;;4.50;99.90;;;;;;5013179;28;20366;-86
2024/03/18 07:07:02;;;;;;;16.23;5.50;;;4.70;99.90;;;;;;4977382;28;19933;-86
2024/03/18 07:09:28;;;;;;;13.75;5.50;;;4.80;99.90;;;;;;4992521;28;20034;-83
2024/03/18 07:11:53;;;;;;;12.05;6.03;;;4.80;99.90;;;;;;4991984;28;20026;-87
2024/03/18 07:14:19;;;;;;;15.05;6.18;;;4.80;99.90;;;;;;4991607;28;20284;-85
2024/03/18 07:16:45;;;;;;;12.52;6.53;;;4.90;99.90;;;;;;4992020;28;20030;-84
2024/03/18 07:19:10;;;;;;;13.30;6.32;;;4.90;99.90;;;;;;4993993;28;20074;-84
2024/03/18 07:21:36;;;;;;;11.70;5.95;;;4.90;99.90;;;;;;5004722;28;20093;-84
2024/03/18 07:24:02;;;;;;;15.77;7.38;;;4.90;99.90;;;;;;4992847;28;20113;-84
2024/03/18 07:26:29;;;;;;;13.32;5.68;;;5.00;99.90;;;;;;5000131;28;20037;-81
2024/03/18 07:28:54;;;;;;;13.70;5.97;;;5.00;99.90;;;;;;5011884;28;20040;-83
2024/03/18 07:31:20;;;;;;;16.17;6.50;;;5.10;99.90;;;;;;5012380;28;20112;-82
2024/03/18 07:33:46;;;;;;;13.43;6.68;;;5.10;99.90;;;;;;5012101;28;20022;-81
2024/03/18 07:36:11;;;;;;;19.95;7.28;;;5.10;99.90;;;;;;5013782;28;20033;-81
2024/03/18 07:38:37;;;;;;;13.63;6.60;;;5.10;99.90;;;;;;5013854;28;20540;-81
2024/03/18 07:41:03;;;;;;;18.75;6.70;;;5.00;99.90;;;;;;5014488;28;20076;-82
2024/03/18 07:43:29;;;;;;;12.13;5.90;;;5.10;99.90;;;;;;5012452;28;20037;-82
2024/03/18 07:45:54;;;;;;;15.45;6.55;;;5.00;99.90;;;;;;5009706;28;20037;-82
2024/03/18 07:48:20;;;;;;;15.15;6.95;;;5.00;99.90;;;;;;5011453;28;20180;-84
2024/03/18 07:50:45;;;;;;;14.23;6.28;;;5.00;99.90;;;;;;5011647;28;20029;-83
2024/03/18 07:53:11;;;;;;;15.25;6.90;;;5.00;99.90;;;;;;5011743;28;20420;-83
2024/03/18 07:55:37;;;;;;;12.07;6.72;;;5.20;99.90;;;;;;5009821;28;20053;-82
2024/03/18 07:58:02;;;;;;;11.50;6.63;;;5.40;99.90;;;;;;5011304;28;20026;-82
2024/03/18 08:00:28;;;;;;;18.27;6.63;;;5.60;99.90;;;;;;5011331;28;20149;-81
2024/03/18 08:02:54;;;;;;;14.32;5.85;;;5.60;99.90;;;;;;4993969;28;20044;-82
2024/03/18 08:05:20;;;;;;;14.05;6.25;;;5.90;99.90;;;;;;5010466;28;20033;-82
2024/03/18 08:07:48;;;;;;;11.93;6.38;;;6.00;99.90;;;;;;5006246;28;20400;-82
2024/03/18 08:10:14;;;;;;;10.52;5.72;;;6.20;99.90;;;;;;4996594;28;20037;-82
2024/03/18 08:12:40;;;;;;;13.40;6.90;;;6.30;99.90;;;;;;4992124;28;20023;-81
2024/03/18 08:15:07;;;;;;;10.25;5.78;;;6.50;99.90;;;;;;5009426;28;20432;-81
2024/03/18 08:17:32;;;;;;;12.88;5.90;;;6.70;99.90;;;;;;4997588;28;20121;-83
2024/03/18 08:19:58;;;;;;;11.73;6.53;;;6.90;99.90;;;;;;4998731;28;20116;-83
2024/03/18 08:22:26;;;;;;;9.50;6.10;;;7.30;99.90;;;;;;5001254;28;20108;-84
2024/03/18 08:24:52;;;;;;;11.52;5.80;;;7.80;99.90;;;;;;4993685;28;20604;-83
2024/03/18 08:27:17;;;;;;;10.88;6.03;;;8.20;99.90;;;;;;5005446;28;20026;-83
2024/03/18 08:29:43;;;;;;;11.77;5.45;;;8.50;99.90;;;;;;4989868;28;20030;-84
2024/03/18 08:32:09;;;;;;;15.23;5.85;;;8.70;99.90;;;;;;4989590;28;20018;-82
2024/03/18 08:34:35;;;;;;;8.07;5.10;;;9.10;98.30;;;;;;4990901;28;20512;-84
2024/03/18 08:37:01;;;;;;;11.10;5.10;;;9.10;97.90;;;;;;4991142;28;20110;-83
2024/03/18 08:39:27;;;;;;;12.63;5.60;;;9.30;97.40;;;;;;4993594;28;20112;-84
2024/03/18 08:41:52;;;;;;;13.88;5.63;;;9.20;96.60;;;;;;5010507;28;20041;-87
2024/03/18 08:44:18;;;;;;;8.80;5.63;;;9.10;97.10;;;;;;4993611;28;20034;-82
2024/03/18 08:46:44;;;;;;;13.70;6.00;;;9.00;96.30;;;;;;4994788;28;20038;-88
2024/03/18 08:49:13;;;;;;;9.50;5.13;;;9.10;96.80;;;;;;4993714;28;20109;-82
2024/03/18 08:51:43;;;;;;;11.07;5.53;;;9.30;96.40;;;;;;5001787;28;20034;-83
2024/03/18 08:54:09;;;;;;;7.77;5.00;;;9.00;96.40;;;;;;4992778;28;20034;-83
2024/03/18 08:56:36;;;;;;;13.25;5.57;;;9.00;96.70;;;;;;5007975;28;20334;-83
2024/03/18 08:59:02;;;;;;;12.65;5.25;;;9.00;96.40;;;;;;4982277;28;20026;-89
2024/03/18 09:01:28;;;;;;;11.15;5.10;;;9.10;96.40;;;;;;5019674;28;20026;-89
2024/03/18 09:03:54;;;;;;;9.07;5.47;;;9.10;96.40;;;;;;5008215;28;20026;-89
2024/03/18 09:06:20;;;;;;;8.23;4.95;;;9.00;96.30;;;;;;4982084;28;20029;-89
2024/03/18 09:08:46;;;;;;;10.25;5.65;;;9.10;96.80;;;;;;5010124;28;20021;-89
2024/03/18 09:11:14;;;;;;;10.10;5.60;;;9.00;96.30;;;;;;4994985;28;20480;-89
2024/03/18 09:13:41;;;;;;;7.88;5.18;;;9.00;97.10;;;;;;4999175;28;20113;-89
2024/03/18 09:16:07;;;;;;;11.35;5.13;;;9.00;96.50;;;;;;4992240;28;20053;-89
2024/03/18 09:18:32;;;;;;;12.05;5.13;;;9.00;97.00;;;;;;5000189;28;20488;-88
2024/03/18 09:20:58;;;;;;;10.10;5.55;;;8.90;96.20;;;;;;5010218;28;20030;-88
2024/03/18 09:23:24;;;;;;;10.25;5.38;;;8.90;96.50;;;;;;5010726;28;20037;-88
2024/03/18 09:25:50;;;;;;;12.90;5.70;;;8.90;97.30;;;;;;5010504;28;20189;-87
2024/03/18 09:28:16;;;;;;;10.15;5.50;;;9.20;97.30;;;;;;5010668;28;20022;-88
2024/03/18 09:30:42;;;;;;;9.82;4.80;;;9.20;96.00;;;;;;5001273;28;20500;-87
2024/03/18 09:33:11;;;;;;;15.07;5.18;;;9.30;96.40;;;;;;5000824;28;20044;-87
2024/03/18 09:35:37;;;;;;;14.82;5.32;;;9.40;96.00;;;;;;4995161;28;20101;-89
2024/03/18 09:38:03;;;;;;;10.70;5.78;;;9.30;95.50;;;;;;4996172;28;20037;-89
2024/03/18 09:40:31;;;;;;;11.57;4.93;;;9.50;96.00;;;;;;5011379;28;20022;-88
2024/03/18 09:42:56;;;;;;;11.20;6.10;;;9.60;95.20;;;;;;5011241;28;20033;-89
2024/03/18 09:45:23;;;;;;;17.67;5.60;;;9.80;95.40;;;;;;5000852;28;20026;-89
2024/03/18 09:47:49;;;;;;;11.32;6.28;;;9.80;95.40;;;;;;4994754;28;20061;-89
2024/03/18 09:50:16;;;;;;;11.15;5.45;;;9.90;94.30;;;;;;4994013;28;20030;-90
2024/03/18 09:52:44;;;;;;;15.20;5.80;;;9.80;94.20;;;;;;4993997;28;20034;-91
2024/03/18 09:55:24;;;;;;;8.75;5.38;;;9.90;94.30;;;;;;5007999;28;20152;-87
2024/03/18 09:57:51;;;;;;;10.10;4.95;;;10.00;94.20;;;;;;5008579;28;20034;-87
2024/03/18 10:00:21;;;;;;;11.50;5.97;;;10.20;94.20;;;;;;5011397;28;20087;-88
2024/03/18 10:02:47;;;;;;;11.65;5.88;;;10.10;93.60;;;;;;5011210;28;20060;-88
2024/03/18 10:05:14;;;;;;;11.77;6.40;;;10.20;93.50;;;;;;5011100;28;20057;-88
2024/03/18 10:07:40;;;;;;;15.25;6.90;;;10.20;93.20;;;;;;5011450;28;20089;-88
2024/03/18 10:10:17;;;;;;;11.68;5.78;;;10.20;94.00;;;;;;5013447;28;20022;-88
2024/03/18 10:12:43;;;;;;;14.23;7.43;;;10.30;93.80;;;;;;5010958;28;20026;-88
2024/03/18 10:15:13;;;;;;;8.85;5.55;;;10.80;93.50;;;;;;4995836;28;20026;-87
2024/03/18 10:17:40;;;;;;;12.85;6.32;;;11.10;92.70;;;;;;4989399;28;20026;-87
2024/03/18 10:20:20;;;;;;;8.80;5.85;;;11.20;93.10;;;;;;4989260;28;20053;-87
2024/03/18 10:22:48;;;;;;;11.20;6.63;;;11.50;93.30;;;;;;4988435;28;20125;-83
2024/03/18 10:25:16;;;;;;;9.25;6.05;;;11.70;91.90;;;;;;4987295;28;20557;-83
2024/03/18 10:42:44;;;;;;;13.88;5.57;;;12.40;90.70;;;;;;6153464;22;3979507;-82
2024/03/18 10:45:15;;;;;;;7.90;5.47;;;12.90;89.10;;;;;;6237763;22;20143;-82
2024/03/18 10:47:43;;;;;;;10.68;5.15;;;13.10;87.30;;;;;;6248497;23;20004;-79
2024/03/18 10:50:16;;;;;;;9.45;5.50;;;13.20;86.30;;;;;;6247257;23;20007;-80
2024/03/18 10:52:42;;;;;;;9.55;5.25;;;13.20;84.60;;;;;;6249499;23;20000;-87
2024/03/18 10:55:19;;;;;;;13.63;5.60;;;13.40;84.20;;;;;;6249206;23;20003;-87
2024/03/18 10:57:47;;;;;;;11.18;5.60;;;13.60;84.00;;;;;;6246794;23;20008;-88
2024/03/18 11:00:18;;;;;;;9.07;4.70;;;14.20;81.40;;;;;;6245781;23;20007;-87
2024/03/18 11:02:59;;;;;;;8.50;5.55;;;15.30;81.20;;;;;;6246803;23;20034;-88
2024/03/18 11:05:34;;;;;;;13.85;5.13;;;15.70;76.70;;;;;;6245828;23;20040;-87
2024/03/18 11:08:07;;;;;;;7.78;5.05;;;16.30;75.40;;;;;;6247146;23;20030;-88
2024/03/18 11:10:36;;;;;;;8.40;4.70;;;16.60;75.00;;;;;;6248272;23;20087;-88
2024/03/18 11:13:13;;;;;;;8.20;4.78;;;17.40;74.00;;;;;;6248455;23;20000;-88
2024/03/18 11:16:08;;;;;;;6.93;3.95;;;18.00;71.00;;;;;;6251604;23;19999;-88
2024/03/18 11:18:50;;;;;;;6.72;4.47;;;18.60;69.30;;;;;;6249592;23;20008;-87
2024/03/18 11:21:23;;;;;;;8.75;5.20;;;18.70;67.60;;;;;;6249174;23;20012;-88
2024/03/18 11:23:57;;;;;;;9.93;5.32;;;19.60;66.70;;;;;;6248553;23;20026;-88
2024/03/18 11:26:24;;;;;;;8.45;4.22;;;20.40;65.90;;;;;;6248688;23;20032;-88
2024/03/18 11:29:05;;;;;;;7.30;4.65;;;20.20;63.60;;;;;;6248416;23;20339;-87
2024/03/18 11:31:36;;;;;;;7.68;4.70;;;20.70;64.20;;;;;;6248086;23;20095;-87
2024/03/18 11:34:07;;;;;;;6.75;4.88;;;20.20;59.60;;;;;;6248392;23;20004;-86
2024/03/18 11:36:35;;;;;;;;;;;19.60;59.90;;;;;;6250548;22;20023;-87
2024/03/18 11:39:02;;;;;;;6.88;4.53;;;20.10;60.00;;;;;;6245969;23;20017;-86
2024/03/18 11:41:28;;;;;;;8.32;4.97;;;20.40;61.30;;;;;;6241798;23;20012;-87
2024/03/18 11:43:53;;;;;;;6.38;4.07;;;20.00;61.00;;;;;;6242302;23;20056;-87
2024/03/18 11:46:19;;;;;;;8.07;4.82;;;19.60;60.90;;;;;;6247056;23;20008;-86
2024/03/18 11:48:45;;;;;;;5.88;4.20;;;18.70;60.40;;;;;;6239935;23;20481;-87
2024/03/18 11:51:10;;;;;;;6.72;4.40;;;17.90;61.90;;;;;;6241459;23;20075;-87
2024/03/18 11:53:36;;;;;;;6.10;4.55;;;16.80;64.30;;;;;;6241332;23;20007;-86
2024/03/18 11:56:02;;;;;;;6.53;4.35;;;16.50;64.60;;;;;;6241167;23;20004;-86
2024/03/18 11:58:28;;;;;;;8.45;5.10;;;16.00;66.00;;;;;;6238547;23;20000;-87
2024/03/18 12:00:53;;;;;;;9.88;4.80;;;15.70;66.20;;;;;;6242009;22;20004;-87
2024/03/18 12:03:21;;;;;;;6.70;4.05;;;15.50;67.00;;;;;;6240914;23;20067;-87
2024/03/18 12:05:48;;;;;;;7.05;4.47;;;16.00;68.80;;;;;;6242997;22;20031;-88
2024/03/18 12:08:22;;;;;;;6.38;3.88;;;16.50;65.50;;;;;;6242055;23;20008;-88
2024/03/18 12:10:53;;;;;;;10.70;4.28;;;17.00;66.00;;;;;;6241005;23;20395;-85
2024/03/18 12:13:26;;;;;;;6.95;4.60;;;17.10;66.10;;;;;;6240636;23;20654;-85
2024/03/18 12:15:53;;;;;;;4.57;3.78;;;17.00;64.40;;;;;;6240571;23;20027;-85
2024/03/18 12:18:19;;;;;;;6.03;3.88;;;16.60;65.30;;;;;;6242435;22;20408;-85
2024/03/18 12:20:45;;;;;;;4.90;3.28;;;16.20;64.60;;;;;;6241657;22;20001;-85
2024/03/18 12:28:49;;;;;;;7.28;5.38;;;15.30;69.80;;;;;;6241706;23;20051;-84
2024/03/18 12:31:19;;;;;;;7.03;4.10;;;14.90;70.30;;;;;;6240591;23;20417;-85
2024/03/18 12:33:45;;;;;;;7.78;4.68;;;14.60;69.10;;;;;;6241245;23;20011;-85
2024/03/18 12:36:15;;;;;;;5.95;4.40;;;14.50;69.10;;;;;;6240739;23;20000;-85
2024/03/18 12:38:42;;;;;;;8.32;4.55;;;14.30;70.00;;;;;;6239600;23;20430;-84
2024/03/18 12:41:14;;;;;;;5.80;4.28;;;14.10;69.30;;;;;;6240311;23;20454;-84
2024/03/18 12:43:40;;;;;;;6.80;4.68;;;13.90;70.50;;;;;;6240051;23;20011;-84
2024/03/18 12:46:06;;;;;;;8.27;4.53;;;13.70;68.80;;;;;;6240659;23;20004;-85
2024/03/18 12:48:32;;;;;;;6.85;4.32;;;13.60;69.10;;;;;;6241570;22;20014;-84
2024/03/18 12:50:57;;;;;;;7.32;4.70;;;13.60;70.00;;;;;;6243490;22;19996;-85
2024/03/18 12:53:23;;;;;;;6.78;4.32;;;13.60;69.30;;;;;;6243602;22;20370;-85
2024/03/18 12:55:49;;;;;;;7.70;4.00;;;13.70;70.10;;;;;;6243549;22;20252;-85
2024/03/18 12:58:14;;;;;;;7.63;4.63;;;13.70;70.90;;;;;;6242092;23;20097;-85
2024/03/18 13:00:41;;;;;;;6.93;4.25;;;13.80;72.00;;;;;;6240899;23;20004;-84
2024/03/18 13:03:13;;;;;;;5.63;4.40;;;13.80;70.80;;;;;;6243542;23;20043;-85
2024/03/18 13:05:38;;;;;;;10.48;4.55;;;13.80;72.20;;;;;;6241518;23;20008;-85
2024/03/18 13:08:04;;;;;;;9.35;4.95;;;13.90;70.10;;;;;;6243516;22;20431;-85
2024/03/18 13:10:30;;;;;;;7.50;4.20;;;13.90;71.00;;;;;;6240681;23;20015;-82
2024/03/18 13:12:56;;;;;;;6.30;3.95;;;14.00;72.70;;;;;;6249885;23;20011;-82
2024/03/18 13:15:22;;;;;;;7.30;3.97;;;14.10;70.40;;;;;;6244215;23;20079;-83